Time;durP1;ratioP1;P1;durP2;ratioP2;P2;SDS_P1;SDS_P2;PMS_P1;PMS_P2;Temp;Humidity;BMP_temperature;BMP_pressure;BME280_temperature;BME280_humidity;BME280_pressure;Samples;Min_cycle;Max_cycle;Signal;HPM_P1;HPM_P2
2022/01/24 00:01:54;;;;;;;46.83;27.63;;;6.90;99.90;;;;;;5093982;28;20027;-73
2022/01/24 00:04:23;;;;;;;49.50;29.50;;;7.00;99.90;;;;;;5095294;28;20036;-76
2022/01/24 00:06:49;;;;;;;47.72;28.30;;;6.90;99.90;;;;;;5095018;28;20397;-74
2022/01/24 00:09:15;;;;;;;51.10;30.33;;;6.80;99.90;;;;;;5091937;28;20040;-76
2022/01/24 00:12:03;;;;;;;58.28;31.67;;;6.90;99.90;;;;;;5074751;28;20020;-76
2022/01/24 00:17:35;;;;;;;59.67;32.05;;;6.90;99.90;;;;;;5074789;28;20394;-77
2022/01/24 00:28:15;;;;;;;50.42;28.92;;;7.00;99.90;;;;;;5074470;28;20033;-76
2022/01/24 00:30:41;;;;;;;57.63;31.35;;;6.70;99.90;;;;;;5056272;28;20157;-75
2022/01/24 00:33:07;;;;;;;50.40;30.50;;;6.60;99.90;;;;;;5074298;28;20033;-75
2022/01/24 00:35:33;;;;;;;62.67;33.03;;;6.70;99.90;;;;;;5074122;28;20059;-76
2022/01/24 00:38:01;;;;;;;57.63;31.52;;;6.70;99.90;;;;;;5074167;28;20036;-75
2022/01/24 00:40:30;;;;;;;57.08;30.85;;;6.90;99.90;;;;;;5074260;28;20078;-76
2022/01/24 00:42:58;;;;;;;43.78;24.67;;;6.80;99.90;;;;;;5074115;28;20067;-76
2022/01/24 00:53:18;;;;;;;34.08;20.70;;;6.60;99.90;;;;;;5073696;28;20036;-74
2022/01/24 00:55:47;;;;;;;38.35;20.00;;;6.60;99.90;;;;;;5073803;28;20052;-76
2022/01/24 00:58:13;;;;;;;39.95;22.33;;;6.50;99.90;;;;;;5073887;28;20477;-76
2022/01/24 01:00:40;;;;;;;46.85;25.77;;;6.50;99.90;;;;;;5072456;28;20029;-76
2022/01/24 01:03:05;;;;;;;45.97;27.02;;;6.50;99.90;;;;;;5073722;28;20025;-76
2022/01/24 01:05:55;;;;;;;50.60;28.63;;;6.60;99.90;;;;;;5073795;28;20086;-76
2022/01/24 01:18:59;;;;;;;49.63;28.38;;;6.70;99.90;;;;;;5093705;28;20027;-73
2022/01/24 01:21:26;;;;;;;48.15;28.25;;;6.80;99.90;;;;;;5093129;28;20473;-74
2022/01/24 01:23:56;;;;;;;46.75;28.27;;;6.90;99.90;;;;;;5092537;28;20020;-74
2022/01/24 01:28:55;;;;;;;49.88;27.75;;;7.10;99.90;;;;;;5093617;28;20654;-73
2022/01/24 01:31:31;;;;;;;48.15;28.55;;;6.90;99.90;;;;;;5093392;28;20071;-74
2022/01/24 01:34:11;;;;;;;42.20;24.83;;;6.80;99.90;;;;;;5092068;28;20032;-73
2022/01/24 01:55:50;;;;;;;43.47;23.77;;;6.70;99.90;;;;;;5073034;28;20568;-76
2022/01/24 01:58:21;;;;;;;44.33;25.17;;;6.50;99.90;;;;;;5072756;28;20044;-75
2022/01/24 02:00:56;;;;;;;46.40;24.25;;;6.40;99.90;;;;;;5073069;28;20384;-74
2022/01/24 02:03:23;;;;;;;40.40;22.80;;;6.20;99.90;;;;;;5072880;28;20094;-74
2022/01/24 02:05:49;;;;;;;48.00;24.25;;;6.30;99.90;;;;;;5072784;28;20388;-75
2022/01/24 02:08:16;;;;;;;36.88;22.05;;;6.20;99.90;;;;;;5072380;28;20025;-75
2022/01/24 02:10:43;;;;;;;37.45;22.15;;;6.20;99.90;;;;;;5087409;28;20024;-75
2022/01/24 02:13:10;;;;;;;34.80;20.15;;;6.10;99.90;;;;;;5092954;28;20489;-75
2022/01/24 02:25:59;;;;;;;31.08;18.25;;;6.00;99.90;;;;;;5092733;28;20028;-75
2022/01/24 02:28:28;;;;;;;31.42;18.45;;;6.00;99.90;;;;;;5093056;28;20066;-74
2022/01/24 02:33:39;;;;;;;32.40;18.25;;;5.90;99.90;;;;;;5093028;28;20032;-75
2022/01/24 02:36:04;;;;;;;31.45;17.65;;;5.80;99.90;;;;;;5092687;28;20078;-75
2022/01/24 02:38:52;;;;;;;32.13;18.70;;;5.70;99.90;;;;;;5091350;28;20071;-75
2022/01/24 02:49:35;;;;;;;24.98;13.98;;;5.70;99.90;;;;;;5096212;28;20067;-75
2022/01/24 02:52:14;;;;;;;32.55;17.58;;;5.70;99.90;;;;;;5096621;28;20492;-75
2022/01/24 02:54:40;;;;;;;32.70;17.73;;;5.80;99.90;;;;;;5095109;28;20377;-75
2022/01/24 02:57:08;;;;;;;32.72;18.48;;;5.80;99.90;;;;;;5095251;28;20034;-75
2022/01/24 02:59:34;;;;;;;32.25;17.58;;;5.70;99.90;;;;;;5096365;28;20050;-75
2022/01/24 03:02:00;;;;;;;32.17;17.70;;;5.80;99.90;;;;;;5096654;28;20028;-76
2022/01/24 03:04:26;;;;;;;29.63;17.30;;;5.80;99.90;;;;;;5096110;28;20028;-75
2022/01/24 03:06:52;;;;;;;34.40;18.38;;;5.80;99.90;;;;;;5078055;28;20027;-76
2022/01/24 03:09:18;;;;;;;34.40;17.42;;;5.90;99.90;;;;;;5092827;28;20380;-75
2022/01/24 03:14:17;;;;;;;34.60;19.27;;;5.70;99.90;;;;;;5086740;28;20039;-75
2022/01/24 03:16:43;;;;;;;32.15;18.33;;;5.80;99.90;;;;;;5094675;28;20074;-75
2022/01/24 03:19:08;;;;;;;29.73;18.00;;;5.90;99.90;;;;;;5095913;28;20427;-75
2022/01/24 03:21:34;;;;;;;31.38;18.48;;;5.80;99.90;;;;;;5095963;28;20082;-76
2022/01/24 03:24:00;;;;;;;30.77;18.45;;;5.70;99.90;;;;;;5095946;28;20016;-75
2022/01/24 03:26:26;;;;;;;33.20;19.08;;;5.60;99.90;;;;;;5095769;28;20028;-76
2022/01/24 03:28:52;;;;;;;31.50;17.75;;;5.50;99.90;;;;;;5095854;28;20104;-76
2022/01/24 03:31:18;;;;;;;31.95;18.98;;;5.40;99.90;;;;;;5094402;28;20439;-75
2022/01/24 03:33:44;;;;;;;30.60;18.27;;;5.50;99.90;;;;;;5095791;28;20036;-75
2022/01/24 03:36:10;;;;;;;38.25;19.63;;;5.50;99.90;;;;;;5095520;28;20071;-75
2022/01/24 03:38:36;;;;;;;35.22;19.63;;;5.50;99.90;;;;;;5095759;28;20024;-76
2022/01/24 03:41:02;;;;;;;36.38;20.52;;;5.60;99.90;;;;;;5095590;28;20045;-74
2022/01/24 03:43:28;;;;;;;34.42;20.30;;;5.60;99.90;;;;;;5095702;28;20476;-75
2022/01/24 03:48:48;;;;;;;33.78;20.10;;;5.50;99.90;;;;;;5094020;28;20470;-76
2022/01/24 03:51:15;;;;;;;33.05;19.55;;;5.60;99.90;;;;;;5093874;28;20031;-75
2022/01/24 03:53:42;;;;;;;36.85;21.27;;;5.50;99.90;;;;;;5095426;28;20032;-76
2022/01/24 03:56:09;;;;;;;32.63;18.90;;;5.40;99.90;;;;;;5095317;28;20063;-75
2022/01/24 03:58:34;;;;;;;28.33;17.17;;;5.30;99.90;;;;;;5095292;28;20028;-74
2022/01/24 04:01:02;;;;;;;33.55;18.52;;;5.30;99.90;;;;;;5095310;28;20452;-74
2022/01/24 04:03:28;;;;;;;33.42;18.08;;;5.30;99.90;;;;;;5095462;28;20111;-76
2022/01/24 04:05:54;;;;;;;36.03;19.67;;;5.40;99.90;;;;;;5095025;28;20111;-76
2022/01/24 04:08:20;;;;;;;35.33;19.40;;;5.60;99.90;;;;;;5095072;28;20489;-75
2022/01/24 04:10:49;;;;;;;37.22;20.55;;;5.60;99.90;;;;;;5079420;28;20049;-76
2022/01/24 04:16:22;;;;;;;37.30;20.53;;;5.50;99.90;;;;;;5074610;28;20064;-75
2022/01/24 04:18:59;;;;;;;38.53;21.10;;;5.50;99.90;;;;;;5074611;28;20032;-76
2022/01/24 04:21:32;;;;;;;35.08;21.27;;;5.30;99.90;;;;;;5074492;28;20028;-75
2022/01/24 04:26:29;;;;;;;38.03;22.13;;;5.40;99.90;;;;;;5081539;28;20465;-75
2022/01/24 04:28:55;;;;;;;37.30;21.70;;;5.40;99.90;;;;;;5094662;28;20038;-76
2022/01/24 04:31:23;;;;;;;41.25;22.48;;;5.50;99.90;;;;;;5094259;28;20445;-75
2022/01/24 04:33:49;;;;;;;40.53;21.20;;;5.40;99.90;;;;;;5094649;28;20036;-75
2022/01/24 04:36:16;;;;;;;39.55;22.05;;;5.40;99.90;;;;;;5094228;28;20040;-76
2022/01/24 04:38:43;;;;;;;38.15;22.23;;;5.60;99.90;;;;;;5093288;28;20024;-76
2022/01/24 04:51:55;;;;;;;42.30;22.55;;;5.50;99.90;;;;;;5094082;28;20032;-76
2022/01/24 04:57:08;;;;;;;39.90;23.00;;;5.70;99.90;;;;;;5093861;28;20093;-75
2022/01/24 04:59:34;;;;;;;45.53;22.73;;;5.60;99.90;;;;;;5093795;28;20017;-75
2022/01/24 05:02:00;;;;;;;41.22;22.00;;;5.60;99.90;;;;;;5093055;28;20039;-75
2022/01/24 05:04:26;;;;;;;39.40;21.25;;;5.50;99.90;;;;;;5093736;28;20081;-76
2022/01/24 05:06:52;;;;;;;38.55;22.23;;;5.60;99.90;;;;;;5094065;28;20024;-75
2022/01/24 05:09:19;;;;;;;39.90;21.27;;;5.50;99.90;;;;;;5090480;28;20021;-76
2022/01/24 05:11:52;;;;;;;40.03;22.48;;;5.60;99.90;;;;;;5073597;28;20029;-75
2022/01/24 05:25:35;;;;;;;36.67;20.55;;;5.70;99.90;;;;;;5031245;28;20128;-76
2022/01/24 05:28:01;;;;;;;39.45;22.48;;;5.50;99.90;;;;;;5047463;28;20124;-74
2022/01/24 05:30:27;;;;;;;40.35;23.13;;;5.40;99.90;;;;;;5050772;28;20117;-74
2022/01/24 05:32:52;;;;;;;40.45;22.10;;;5.40;99.90;;;;;;5073219;28;20032;-75
2022/01/24 05:35:18;;;;;;;39.03;22.67;;;5.20;99.90;;;;;;5073066;28;20123;-74
2022/01/24 05:37:44;;;;;;;42.20;22.05;;;5.20;99.90;;;;;;5071624;28;20032;-75
2022/01/24 05:40:10;;;;;;;41.80;23.83;;;5.20;99.90;;;;;;5073317;28;20099;-75
2022/01/24 05:42:36;;;;;;;48.97;25.05;;;5.10;99.90;;;;;;5072838;28;20086;-75
2022/01/24 05:45:06;;;;;;;46.28;23.40;;;5.30;99.90;;;;;;5073068;28;20020;-75
2022/01/24 05:47:32;;;;;;;50.67;24.40;;;5.20;99.90;;;;;;5072967;28;20060;-74
2022/01/24 05:49:57;;;;;;;45.42;24.48;;;5.40;99.90;;;;;;5073478;28;20067;-75
2022/01/24 05:52:23;;;;;;;43.17;24.63;;;5.60;99.90;;;;;;5072759;28;20036;-75
2022/01/24 05:54:49;;;;;;;44.08;24.42;;;5.50;99.90;;;;;;5073179;28;20074;-75
2022/01/24 05:57:15;;;;;;;48.63;25.45;;;5.40;99.90;;;;;;5072680;28;20059;-75
2022/01/24 05:59:41;;;;;;;44.05;25.30;;;5.60;99.90;;;;;;5072923;28;20046;-74
2022/01/24 06:02:06;;;;;;;47.15;25.13;;;5.60;99.90;;;;;;5072836;28;20103;-75
2022/01/24 06:04:32;;;;;;;59.15;25.02;;;5.70;99.90;;;;;;5072748;28;20021;-75
2022/01/24 06:06:58;;;;;;;51.22;25.20;;;5.60;99.90;;;;;;5071564;28;20389;-75
2022/01/24 06:09:24;;;;;;;44.42;25.20;;;5.60;99.90;;;;;;5075380;28;20016;-75
2022/01/24 06:11:51;;;;;;;51.00;24.73;;;5.50;99.90;;;;;;5092812;28;20469;-75
2022/01/24 06:14:17;;;;;;;56.47;26.65;;;5.50;99.90;;;;;;5091460;28;20035;-75
2022/01/24 06:16:43;;;;;;;48.08;25.75;;;5.50;99.90;;;;;;5092770;28;20024;-76
2022/01/24 06:19:09;;;;;;;42.13;23.05;;;5.50;99.90;;;;;;5092814;28;20040;-75
2022/01/24 06:21:36;;;;;;;52.25;24.35;;;5.60;99.90;;;;;;5092823;28;20062;-76
2022/01/24 06:24:02;;;;;;;53.53;23.80;;;5.50;99.90;;;;;;5092926;28;20031;-76
2022/01/24 06:26:28;;;;;;;45.83;23.48;;;5.40;99.90;;;;;;5092341;28;20027;-75
2022/01/24 06:28:53;;;;;;;51.88;25.35;;;5.30;99.90;;;;;;5092796;28;20031;-76
2022/01/24 06:31:19;;;;;;;46.67;25.45;;;5.30;99.90;;;;;;5092970;28;20028;-75
2022/01/24 06:33:48;;;;;;;51.42;24.05;;;5.50;99.90;;;;;;5092492;28;20072;-75
2022/01/24 06:36:14;;;;;;;46.25;24.38;;;5.50;99.90;;;;;;5091285;28;20040;-76
2022/01/24 06:38:40;;;;;;;48.47;24.58;;;5.40;99.90;;;;;;5091284;28;20012;-75
2022/01/24 06:41:05;;;;;;;47.05;25.83;;;5.30;99.90;;;;;;5092562;28;20357;-75
2022/01/24 06:43:31;;;;;;;48.97;25.05;;;5.50;99.90;;;;;;5092585;28;20048;-76
2022/01/24 06:45:57;;;;;;;50.88;25.40;;;5.40;99.90;;;;;;5092774;28;20489;-74
2022/01/24 06:48:23;;;;;;;51.80;24.98;;;5.20;99.90;;;;;;5092427;28;20052;-73
2022/01/24 06:50:49;;;;;;;44.00;24.67;;;5.20;99.90;;;;;;5092979;28;20380;-75
2022/01/24 06:53:15;;;;;;;53.00;24.92;;;5.20;99.90;;;;;;5092782;28;20060;-75
2022/01/24 06:55:41;;;;;;;44.72;23.95;;;5.10;99.90;;;;;;5092224;28;20153;-76
2022/01/24 06:58:07;;;;;;;50.30;25.27;;;5.00;99.90;;;;;;5092454;28;20027;-75
2022/01/24 07:00:33;;;;;;;54.67;25.42;;;5.00;99.90;;;;;;5092605;28;20032;-75
2022/01/24 07:02:59;;;;;;;49.33;24.63;;;4.90;99.90;;;;;;5092443;28;20035;-75
2022/01/24 07:05:27;;;;;;;56.13;25.05;;;4.80;99.90;;;;;;5091097;28;20028;-76
2022/01/24 07:07:56;;;;;;;59.38;24.23;;;4.80;99.90;;;;;;5091426;28;20057;-75
2022/01/24 07:10:25;;;;;;;43.55;23.85;;;4.80;99.90;;;;;;5079829;28;20051;-74
2022/01/24 07:12:52;;;;;;;45.25;24.05;;;4.70;99.90;;;;;;5072214;28;20411;-74
2022/01/24 07:15:20;;;;;;;48.65;24.20;;;4.60;99.90;;;;;;5070909;28;20447;-74
2022/01/24 07:20:18;;;;;;;56.95;25.23;;;4.40;99.90;;;;;;5072001;28;20093;-75
2022/01/24 07:22:44;;;;;;;51.55;25.75;;;4.40;99.90;;;;;;5072131;28;20029;-75
2022/01/24 07:25:10;;;;;;;46.08;24.58;;;4.30;99.90;;;;;;5072715;28;20124;-74
2022/01/24 07:27:36;;;;;;;50.67;26.33;;;4.30;99.90;;;;;;5092810;28;20047;-75
2022/01/24 07:30:04;;;;;;;50.40;23.95;;;4.20;99.90;;;;;;5096122;28;20058;-73
2022/01/24 07:32:30;;;;;;;46.95;24.80;;;4.20;99.90;;;;;;5096519;28;20020;-76
2022/01/24 07:34:57;;;;;;;45.65;25.50;;;4.20;99.90;;;;;;5095653;28;20036;-75
2022/01/24 07:37:25;;;;;;;48.80;24.67;;;4.30;99.90;;;;;;5095610;28;20392;-75
2022/01/24 07:39:52;;;;;;;55.20;25.77;;;4.20;99.90;;;;;;5095560;28;20028;-76
2022/01/24 07:42:28;;;;;;;54.90;24.77;;;4.10;99.90;;;;;;5092030;28;20031;-76
2022/01/24 07:44:55;;;;;;;52.10;24.83;;;4.10;99.90;;;;;;5095123;28;20043;-76
2022/01/24 07:47:21;;;;;;;57.00;25.73;;;4.10;99.90;;;;;;5095101;28;20126;-75
2022/01/24 07:49:47;;;;;;;59.58;25.90;;;4.10;99.90;;;;;;5093840;28;20036;-76
2022/01/24 07:52:13;;;;;;;57.80;26.33;;;4.10;99.90;;;;;;5094291;28;20027;-75
2022/01/24 07:54:38;;;;;;;60.40;29.20;;;4.10;99.90;;;;;;5094465;28;20046;-75
2022/01/24 07:57:05;;;;;;;62.72;29.55;;;4.00;99.90;;;;;;5094928;28;20043;-75
2022/01/24 07:59:30;;;;;;;75.93;31.27;;;4.00;99.90;;;;;;5094713;28;20316;-76
2022/01/24 08:01:56;;;;;;;70.05;28.60;;;4.00;99.90;;;;;;5094768;28;20475;-75
2022/01/24 08:04:22;;;;;;;57.83;27.90;;;4.10;99.90;;;;;;5094821;28;20073;-75
2022/01/24 08:06:49;;;;;;;74.78;29.45;;;4.00;99.90;;;;;;5094355;28;20047;-76
2022/01/24 08:09:15;;;;;;;66.85;29.58;;;3.90;99.90;;;;;;5094573;28;20020;-76
2022/01/24 08:11:41;;;;;;;66.75;27.17;;;3.90;99.90;;;;;;5094342;28;20495;-75
2022/01/24 08:14:08;;;;;;;60.97;28.80;;;3.90;99.90;;;;;;5094336;28;20134;-75
2022/01/24 08:16:35;;;;;;;58.70;27.02;;;4.00;99.90;;;;;;5094250;28;20032;-75
2022/01/24 08:19:01;;;;;;;59.55;27.45;;;4.10;99.90;;;;;;5094342;28;20468;-76
2022/01/24 08:21:27;;;;;;;61.90;29.20;;;4.20;99.90;;;;;;5092702;28;20036;-76
2022/01/24 08:23:53;;;;;;;64.05;26.08;;;4.20;99.90;;;;;;5086074;28;20095;-75
2022/01/24 08:26:19;;;;;;;63.17;27.65;;;4.40;99.90;;;;;;5074594;28;20119;-76
2022/01/24 08:28:45;;;;;;;63.42;26.30;;;4.40;99.90;;;;;;5072384;28;20070;-76
2022/01/24 08:31:11;;;;;;;63.85;26.40;;;4.60;99.90;;;;;;5073574;28;20079;-76
2022/01/24 08:33:37;;;;;;;52.25;26.67;;;4.80;99.90;;;;;;5072139;28;20473;-76
2022/01/24 08:36:04;;;;;;;62.83;26.55;;;4.80;99.90;;;;;;5072250;28;20039;-75
2022/01/24 08:38:33;;;;;;;61.63;27.35;;;4.70;99.90;;;;;;5073247;28;20059;-76
2022/01/24 08:41:05;;;;;;;53.78;28.33;;;4.90;99.90;;;;;;5076025;28;20477;-76
2022/01/24 08:44:17;;;;;;;54.90;27.73;;;5.30;99.90;;;;;;5093948;28;20032;-76
2022/01/24 08:46:23;;;;;;;51.65;26.27;;;5.70;99.90;;;;;;5090178;28;20070;-76
2022/01/24 08:48:49;;;;;;;55.45;26.27;;;5.90;99.90;;;;;;5072874;28;20418;-75
2022/01/24 08:51:15;;;;;;;51.95;26.13;;;6.00;99.90;;;;;;5072512;28;20020;-76
2022/01/24 08:53:42;;;;;;;53.63;27.15;;;6.00;99.90;;;;;;5072762;28;20096;-74
2022/01/24 08:56:10;;;;;;;54.28;25.15;;;6.10;99.90;;;;;;5071493;28;20480;-74
2022/01/24 08:58:37;;;;;;;54.70;25.00;;;6.10;99.90;;;;;;5072845;28;20035;-73
2022/01/24 09:01:04;;;;;;;55.03;24.27;;;6.50;99.90;;;;;;5072512;28;20031;-73
2022/01/24 09:03:35;;;;;;;49.58;22.80;;;6.70;99.90;;;;;;5072737;28;20464;-73
2022/01/24 09:06:02;;;;;;;43.30;22.50;;;6.60;99.90;;;;;;5072237;28;20059;-73
2022/01/24 09:08:30;;;;;;;45.20;21.20;;;6.60;99.90;;;;;;5072114;28;20427;-74
2022/01/24 09:10:55;;;;;;;42.63;21.83;;;6.70;99.90;;;;;;5074659;28;20127;-76
2022/01/24 09:13:21;;;;;;;42.38;21.27;;;6.80;99.90;;;;;;5072332;28;20099;-73
2022/01/24 09:15:47;;;;;;;41.88;20.13;;;6.80;99.90;;;;;;5072819;28;20024;-76
2022/01/24 09:18:13;;;;;;;40.40;21.35;;;6.80;99.90;;;;;;5072944;28;20381;-72
2022/01/24 09:20:39;;;;;;;40.53;20.13;;;6.90;99.90;;;;;;5072117;28;20042;-75
2022/01/24 09:23:09;;;;;;;37.30;19.55;;;6.80;99.90;;;;;;5072619;28;20020;-74
2022/01/24 09:25:35;;;;;;;46.45;22.30;;;6.80;99.90;;;;;;5077263;28;20107;-76
2022/01/24 09:28:02;;;;;;;53.90;21.75;;;6.70;99.90;;;;;;5092857;28;20488;-76
2022/01/24 09:30:27;;;;;;;38.83;21.00;;;6.60;99.90;;;;;;5092800;28;20387;-74
2022/01/24 09:32:53;;;;;;;36.55;21.00;;;7.00;99.90;;;;;;5093017;28;20017;-76
2022/01/24 09:35:20;;;;;;;48.92;21.88;;;7.10;99.90;;;;;;5091666;28;20114;-73
2022/01/24 09:37:47;;;;;;;37.47;19.50;;;7.20;99.90;;;;;;5092974;28;20473;-76
2022/01/24 09:40:15;;;;;;;39.92;20.20;;;6.70;99.90;;;;;;5093149;28;20058;-76
2022/01/24 09:42:45;;;;;;;37.42;19.90;;;6.10;99.90;;;;;;5092475;28;20125;-75
2022/01/24 09:45:12;;;;;;;42.45;21.08;;;6.10;99.90;;;;;;5093363;28;20032;-75
2022/01/24 09:47:38;;;;;;;39.50;20.33;;;6.10;99.90;;;;;;5092539;28;20028;-75
2022/01/24 09:50:07;;;;;;;49.45;20.83;;;6.40;99.90;;;;;;5092701;28;20496;-75
2022/01/24 09:52:33;;;;;;;46.42;21.35;;;6.20;99.90;;;;;;5092534;28;20024;-75
2022/01/24 09:54:59;;;;;;;42.80;21.15;;;6.40;99.90;;;;;;5092799;28;20024;-75
2022/01/24 09:57:25;;;;;;;44.10;19.30;;;6.40;99.90;;;;;;5092937;28;20537;-75
2022/01/24 09:59:52;;;;;;;43.45;19.55;;;6.60;99.90;;;;;;5092961;28;20036;-75
2022/01/24 10:02:18;;;;;;;35.65;18.63;;;6.70;99.90;;;;;;5092775;28;20380;-74
2022/01/24 10:04:44;;;;;;;40.40;20.52;;;6.80;99.90;;;;;;5092828;28;20027;-74
2022/01/24 10:07:12;;;;;;;38.60;21.33;;;6.70;99.90;;;;;;5092785;28;20027;-75
2022/01/24 10:09:54;;;;;;;36.95;19.90;;;6.80;99.90;;;;;;5085238;28;20016;-75
2022/01/24 10:17:54;;;;;;;37.97;20.33;;;6.50;99.90;;;;;;5094911;28;20028;-73
2022/01/24 10:20:22;;;;;;;34.45;19.65;;;6.40;99.90;;;;;;5092650;28;20047;-72
2022/01/24 10:23:13;;;;;;;43.00;21.83;;;6.40;99.90;;;;;;5094065;28;20032;-75
2022/01/24 10:25:50;;;;;;;41.25;20.40;;;6.40;99.90;;;;;;5080741;28;20036;-75
2022/01/24 10:28:28;;;;;;;34.22;20.52;;;6.10;99.90;;;;;;5094455;28;20032;-75
2022/01/24 10:31:15;;;;;;;44.85;20.83;;;6.30;99.90;;;;;;5096634;28;20471;-74
2022/01/24 10:34:00;;;;;;;40.60;21.08;;;6.60;99.90;;;;;;5093058;28;20123;-72
2022/01/24 10:36:35;;;;;;;38.53;21.08;;;6.80;99.90;;;;;;5077894;28;20056;-73
2022/01/24 10:39:15;;;;;;;35.97;19.15;;;7.00;99.90;;;;;;5070158;28;20496;-73
2022/01/24 10:44:31;;;;;;;35.17;19.80;;;7.90;99.90;;;;;;5072008;28;20024;-75
2022/01/24 10:47:19;;;;;;;38.85;20.17;;;8.20;99.90;;;;;;5082286;28;20036;-76
2022/01/24 10:49:46;;;;;;;37.38;22.05;;;8.40;99.90;;;;;;5091448;28;20453;-75
2022/01/24 10:52:14;;;;;;;35.22;19.48;;;8.80;99.90;;;;;;5091545;28;20081;-73
2022/01/24 10:54:40;;;;;;;31.83;18.60;;;9.10;99.90;;;;;;5091642;28;20024;-73
2022/01/24 10:57:06;;;;;;;45.65;21.08;;;9.00;99.90;;;;;;5091694;28;20711;-73
2022/01/24 10:59:35;;;;;;;36.80;21.40;;;9.20;99.90;;;;;;5090906;28;20028;-73
2022/01/24 11:02:03;;;;;;;33.47;21.98;;;9.00;99.90;;;;;;5095785;28;20480;-73
2022/01/24 11:04:29;;;;;;;39.38;21.88;;;8.50;99.90;;;;;;5095954;28;20028;-72
2022/01/24 11:06:57;;;;;;;36.85;20.63;;;8.30;99.90;;;;;;5095553;28;20036;-73
2022/01/24 11:09:30;;;;;;;39.70;22.63;;;9.50;99.90;;;;;;5091755;28;20373;-72
2022/01/24 11:12:11;;;;;;;42.45;22.08;;;10.00;99.90;;;;;;5085679;28;20032;-73
2022/01/24 11:14:43;;;;;;;38.03;22.60;;;9.90;99.90;;;;;;5094367;28;20062;-73
2022/01/24 11:17:13;;;;;;;44.38;23.50;;;10.20;99.90;;;;;;5095200;28;20042;-73
2022/01/24 11:19:50;;;;;;;39.58;21.85;;;10.50;99.90;;;;;;5095390;28;20032;-75
2022/01/24 11:22:20;;;;;;;42.88;22.13;;;10.30;99.90;;;;;;5095365;28;20040;-72
2022/01/24 11:24:58;;;;;;;49.50;24.90;;;10.20;99.90;;;;;;5094331;28;20068;-73
2022/01/24 11:27:24;;;;;;;39.30;22.92;;;10.60;99.90;;;;;;5081497;28;20025;-72
2022/01/24 11:29:53;;;;;;;42.92;24.05;;;11.10;99.90;;;;;;5073401;28;20040;-72
2022/01/24 11:32:57;;;;;;;44.08;24.52;;;11.40;99.90;;;;;;5074972;28;20037;-73
2022/01/24 11:35:50;;;;;;;40.20;24.98;;;11.60;99.60;;;;;;5074349;28;20040;-72
2022/01/24 11:38:44;;;;;;;40.00;25.75;;;11.10;99.90;;;;;;5073316;28;20436;-73
2022/01/24 11:41:32;;;;;;;42.58;23.77;;;10.90;99.90;;;;;;5075091;28;20025;-73
2022/01/24 11:44:07;;;;;;;40.33;23.90;;;9.40;99.90;;;;;;5075476;28;20380;-73
2022/01/24 11:46:52;;;;;;;39.60;22.95;;;8.90;99.90;;;;;;5075111;28;20086;-73
2022/01/24 11:49:27;;;;;;;44.67;24.58;;;9.40;99.90;;;;;;5073652;28;20124;-73
2022/01/24 11:52:10;;;;;;;37.55;23.08;;;10.20;99.90;;;;;;5073833;28;20033;-73
2022/01/24 11:55:12;;;;;;;42.63;25.25;;;9.90;99.90;;;;;;5075129;28;20469;-72
2022/01/24 11:57:40;;;;;;;40.70;23.92;;;10.60;99.90;;;;;;5075013;28;20151;-72
2022/01/24 12:00:06;;;;;;;41.38;24.10;;;12.40;98.70;;;;;;5074650;28;20419;-72
2022/01/24 12:02:38;;;;;;;38.30;24.00;;;12.20;98.00;;;;;;5073603;28;20480;-72
2022/01/24 12:05:16;;;;;;;39.53;23.70;;;10.60;99.70;;;;;;5073322;28;20033;-72
2022/01/24 12:07:49;;;;;;;39.15;23.85;;;9.60;99.90;;;;;;5074914;28;20020;-75
2022/01/24 12:10:23;;;;;;;42.65;24.98;;;10.10;99.90;;;;;;5084513;28;20410;-74
2022/01/24 12:12:53;;;;;;;46.38;23.85;;;11.10;99.90;;;;;;5094832;28;20062;-74
2022/01/24 12:15:37;;;;;;;41.50;25.13;;;12.40;98.10;;;;;;5093190;28;20499;-75
2022/01/24 12:18:08;;;;;;;41.03;23.85;;;13.90;97.10;;;;;;5093679;28;20472;-72
2022/01/24 12:20:37;;;;;;;45.58;24.27;;;14.50;96.20;;;;;;5082725;28;20044;-73
2022/01/24 12:23:25;;;;;;;37.40;24.73;;;13.80;95.40;;;;;;5074773;28;20033;-72
2022/01/24 12:26:05;;;;;;;43.50;24.15;;;12.00;96.90;;;;;;5067957;28;20369;-72
2022/01/24 12:28:34;;;;;;;40.70;25.60;;;11.70;98.30;;;;;;5094356;28;20066;-72
2022/01/24 12:31:04;;;;;;;39.00;24.85;;;13.00;97.20;;;;;;5093261;28;20533;-71
2022/01/24 12:33:38;;;;;;;40.75;24.60;;;14.00;95.70;;;;;;5094403;28;20042;-73
2022/01/24 12:36:14;;;;;;;46.60;26.15;;;13.60;95.50;;;;;;5093233;28;20166;-72
2022/01/24 12:38:48;;;;;;;41.15;26.60;;;11.30;98.30;;;;;;5094387;28;20036;-72
2022/01/24 12:41:37;;;;;;;47.60;27.02;;;12.00;98.80;;;;;;5094466;28;20035;-73
2022/01/24 12:46:32;;;;;;;43.10;25.10;;;12.40;97.20;;;;;;5094170;28;20472;-72
2022/01/24 12:49:00;;;;;;;47.05;26.45;;;11.60;97.70;;;;;;5092949;28;20028;-75
2022/01/24 12:51:28;;;;;;;47.53;26.58;;;12.10;98.60;;;;;;5094104;28;20475;-73
2022/01/24 12:53:56;;;;;;;42.78;25.25;;;13.40;96.80;;;;;;5094211;28;20028;-74
2022/01/24 12:56:27;;;;;;;42.22;25.23;;;11.90;98.00;;;;;;5094090;28;20055;-72
2022/01/24 12:58:54;;;;;;;47.30;27.88;;;10.90;99.00;;;;;;5092940;28;20031;-75
2022/01/24 13:01:26;;;;;;;46.38;26.55;;;12.20;98.10;;;;;;5093900;28;20039;-75
2022/01/24 13:03:56;;;;;;;45.05;27.13;;;12.30;97.90;;;;;;5094140;28;20391;-74
2022/01/24 13:06:22;;;;;;;47.00;28.67;;;12.30;98.10;;;;;;5092657;28;20034;-74
2022/01/24 13:08:56;;;;;;;55.33;27.27;;;14.40;95.90;;;;;;5092648;28;20024;-75
2022/01/24 13:11:22;;;;;;;48.83;28.58;;;14.10;95.50;;;;;;5073250;28;20047;-74
2022/01/24 13:14:11;;;;;;;46.22;27.63;;;15.10;94.60;;;;;;5073765;28;20062;-74
2022/01/24 13:22:40;;;;;;;46.00;25.35;;;11.40;99.20;;;;;;5072572;28;20036;-74
2022/01/24 13:25:22;;;;;;;50.72;26.98;;;11.20;98.50;;;;;;5072250;28;20440;-74
2022/01/24 13:27:52;;;;;;;50.83;27.80;;;11.20;98.80;;;;;;5089971;28;20400;-74
2022/01/24 13:30:29;;;;;;;48.75;28.95;;;11.30;99.40;;;;;;5093700;28;20059;-73
2022/01/24 13:32:58;;;;;;;54.97;29.45;;;12.00;97.90;;;;;;5093416;28;20043;-74
2022/01/24 13:35:30;;;;;;;61.28;30.10;;;14.00;96.20;;;;;;5091790;28;20043;-75
2022/01/24 13:38:15;;;;;;;50.20;29.75;;;15.30;95.00;;;;;;5093209;28;20396;-75
2022/01/24 13:40:57;;;;;;;69.78;31.88;;;15.10;94.50;;;;;;5093171;28;20028;-73
2022/01/24 13:43:35;;;;;;;57.25;31.42;;;15.60;94.20;;;;;;5093346;28;20091;-74
2022/01/24 13:46:04;;;;;;;61.72;34.88;;;16.70;93.20;;;;;;5093119;28;20480;-74
2022/01/24 13:48:41;;;;;;;69.13;34.92;;;15.90;93.40;;;;;;5093318;28;20386;-74
2022/01/24 13:51:08;;;;;;;60.40;33.30;;;15.70;93.60;;;;;;5093224;28;20028;-75
2022/01/24 13:53:38;;;;;;;70.90;33.30;;;15.00;93.50;;;;;;5093078;28;20043;-74
2022/01/24 13:56:16;;;;;;;64.07;32.65;;;15.30;94.50;;;;;;5092653;28;20441;-74
2022/01/24 13:58:42;;;;;;;64.10;33.08;;;15.20;94.70;;;;;;5093183;28;20036;-75
2022/01/24 14:01:07;;;;;;;54.83;33.10;;;14.50;95.40;;;;;;5093112;28;20070;-75
2022/01/24 14:03:33;;;;;;;63.33;34.55;;;14.10;95.30;;;;;;5092867;28;20103;-74
2022/01/24 14:06:14;;;;;;;64.25;34.42;;;15.40;94.40;;;;;;5092992;28;20042;-75
2022/01/24 14:08:41;;;;;;;60.10;33.08;;;14.60;94.50;;;;;;5092955;28;20093;-72
2022/01/24 14:11:12;;;;;;;60.08;33.97;;;14.70;95.10;;;;;;5074347;28;20058;-73
2022/01/24 14:13:38;;;;;;;69.88;35.35;;;13.40;95.30;;;;;;5073764;28;20035;-73
2022/01/24 14:16:11;;;;;;;70.03;35.15;;;14.10;95.60;;;;;;5081144;28;20119;-73
2022/01/24 14:18:36;;;;;;;72.65;35.22;;;14.80;94.80;;;;;;5072301;28;20028;-73
2022/01/24 14:21:11;;;;;;;75.72;35.60;;;14.60;95.20;;;;;;5072550;28;20040;-74
2022/01/24 14:23:40;;;;;;;62.47;32.78;;;14.30;95.50;;;;;;5072745;28;20373;-73
2022/01/24 14:26:21;;;;;;;66.38;34.05;;;13.30;95.70;;;;;;5076339;28;20471;-72
2022/01/24 14:28:48;;;;;;;65.33;34.67;;;12.60;96.80;;;;;;5092750;28;20418;-73
2022/01/24 14:31:16;;;;;;;52.65;31.42;;;13.70;97.00;;;;;;5092778;28;20028;-74
2022/01/24 14:33:43;;;;;;;63.25;33.30;;;14.60;95.30;;;;;;5092987;28;20488;-74
2022/01/24 14:36:13;;;;;;;60.03;30.75;;;13.70;96.20;;;;;;5096822;28;20115;-73
2022/01/24 14:38:45;;;;;;;52.97;30.55;;;14.30;95.80;;;;;;5096010;28;20020;-73
2022/01/24 14:41:18;;;;;;;52.67;30.00;;;12.70;96.60;;;;;;5096780;28;20042;-73
2022/01/24 14:46:40;;;;;;;60.70;32.83;;;12.80;97.70;;;;;;5096762;28;20028;-73
2022/01/24 14:49:09;;;;;;;60.45;35.20;;;13.60;96.60;;;;;;5096356;28;20453;-73
2022/01/24 14:51:40;;;;;;;65.63;33.80;;;13.50;96.30;;;;;;5096652;28;20036;-75
2022/01/24 14:54:08;;;;;;;66.73;34.40;;;12.10;97.70;;;;;;5096208;28;20039;-73
2022/01/24 14:56:37;;;;;;;63.53;35.42;;;11.30;98.80;;;;;;5096563;28;20043;-73